createdAt,value
2022-08-09T00:00:07.386Z,4.35
2022-08-09T00:02:34.996Z,4.55
2022-08-09T00:06:16.437Z,7.00
2022-08-09T00:07:49.551Z,3.75
2022-08-09T00:10:21.349Z,4.35
2022-08-09T00:12:52.289Z,4.13
2022-08-09T00:15:26.635Z,5.55
2022-08-09T00:18:10.841Z,6.65
2022-08-09T00:20:41.412Z,6.30
2022-08-09T00:23:56.598Z,3.97
2022-08-09T00:26:05.185Z,4.82
2022-08-09T00:28:32.186Z,7.85
2022-08-09T00:31:30.455Z,5.07
2022-08-09T00:33:50.837Z,5.55
2022-08-09T00:36:18.723Z,7.05
2022-08-09T00:38:45.398Z,6.43
2022-08-09T00:44:10.446Z,5.57
2022-08-09T00:44:16.133Z,5.40
2022-08-09T00:46:57.672Z,5.28
2022-08-09T00:49:31.642Z,4.65
2022-08-09T00:52:02.130Z,4.88
2022-08-09T00:54:35.179Z,5.18
2022-08-09T00:57:10.619Z,6.80
2022-08-09T00:59:46.361Z,5.13
2022-08-09T01:02:22.037Z,4.68
2022-08-09T01:05:05.457Z,4.47
2022-08-09T01:08:00.960Z,4.40
2022-08-09T01:10:39.481Z,5.15
2022-08-09T01:13:24.055Z,4.07
2022-08-09T01:16:00.831Z,5.55
2022-08-09T01:18:32.067Z,5.13
2022-08-09T01:21:24.883Z,5.15
2022-08-09T01:24:04.967Z,4.13
2022-08-09T01:26:56.066Z,4.25
2022-08-09T01:29:29.377Z,5.00
2022-08-09T01:32:30.681Z,4.95
2022-08-09T01:34:59.803Z,6.05
2022-08-09T01:38:10.222Z,6.07
2022-08-09T01:40:34.686Z,5.05
2022-08-09T01:43:04.546Z,6.97
2022-08-09T01:45:33.633Z,5.65
2022-08-09T01:48:06.083Z,5.07
2022-08-09T01:50:37.248Z,5.15
2022-08-09T01:53:19.201Z,5.85
2022-08-09T01:55:48.151Z,5.20
2022-08-09T01:58:16.033Z,5.20
2022-08-09T02:00:46.083Z,5.68
2022-08-09T02:03:19.342Z,4.97
2022-08-09T02:06:04.218Z,6.30
2022-08-09T02:08:59.140Z,4.97
2022-08-09T02:11:42.548Z,6.53
2022-08-09T02:14:16.061Z,7.38
2022-08-09T02:17:14.691Z,7.20
2022-08-09T02:19:43.428Z,5.95
2022-08-09T02:22:36.390Z,6.20
2022-08-09T02:25:09.910Z,7.15
2022-08-09T02:28:00.116Z,7.22
2022-08-09T02:30:37.218Z,10.80
2022-08-09T02:33:10.405Z,5.85
2022-08-09T02:36:02.860Z,7.10
2022-08-09T02:38:38.953Z,6.45
2022-08-09T02:41:11.578Z,5.78
2022-08-09T02:43:53.665Z,7.13
2022-08-09T02:46:27.641Z,6.55
2022-08-09T02:48:58.876Z,10.02
2022-08-09T02:51:28.350Z,6.95
2022-08-09T02:54:06.153Z,8.23
2022-08-09T02:56:34.369Z,8.10
2022-08-09T02:59:05.516Z,8.85
2022-08-09T03:01:42.804Z,8.48
2022-08-09T03:04:28.857Z,8.05
2022-08-09T03:06:57.178Z,7.25
2022-08-09T03:09:27.931Z,9.48
2022-08-09T03:12:05.519Z,9.88
2022-08-09T03:14:34.097Z,7.40
2022-08-09T03:17:05.436Z,8.50
2022-08-09T03:19:59.001Z,8.40
2022-08-09T03:22:41.500Z,10.13
2022-08-09T03:25:56.713Z,9.80
2022-08-09T03:28:02.433Z,8.93
2022-08-09T03:30:33.964Z,12.48
2022-08-09T03:33:05.563Z,9.75
2022-08-09T03:35:44.167Z,10.02
2022-08-09T03:38:30.236Z,8.68
2022-08-09T03:40:57.955Z,7.95
2022-08-09T03:43:25.018Z,8.40
2022-08-09T03:46:04.251Z,8.65
2022-08-09T03:48:50.948Z,8.60
2022-08-09T03:51:55.142Z,7.15
2022-08-09T03:54:10.999Z,9.30
2022-08-09T03:56:41.977Z,6.97
2022-08-09T03:59:13.697Z,9.23
2022-08-09T04:01:49.478Z,10.18
2022-08-09T04:04:17.329Z,10.65
2022-08-09T04:06:48.727Z,9.35
2022-08-09T04:09:41.802Z,7.80
2022-08-09T04:12:30.430Z,8.57
2022-08-09T04:15:01.831Z,9.65
2022-08-09T04:17:30.021Z,8.95
2022-08-09T04:19:58.778Z,8.73
2022-08-09T04:22:29.707Z,9.00
2022-08-09T04:24:59.312Z,9.65
2022-08-09T04:27:25.989Z,8.60
2022-08-09T04:29:56.084Z,7.82
2022-08-09T04:32:23.673Z,9.23
2022-08-09T04:35:01.299Z,8.63
2022-08-09T04:37:45.954Z,8.50
2022-08-09T04:40:18.861Z,9.07
2022-08-09T04:42:46.054Z,8.35
2022-08-09T04:45:16.450Z,8.88
2022-08-09T04:48:00.209Z,9.27
2022-08-09T04:50:33.599Z,7.57
2022-08-09T04:53:02.075Z,6.85
2022-08-09T04:55:38.931Z,7.18
2022-08-09T04:58:15.540Z,7.28
2022-08-09T05:00:46.421Z,8.95
2022-08-09T05:03:40.820Z,6.50
2022-08-09T05:06:06.680Z,6.97
2022-08-09T05:08:34.858Z,6.47
2022-08-09T05:11:02.720Z,9.07
2022-08-09T05:13:32.852Z,7.35
2022-08-09T05:16:00.340Z,7.60
2022-08-09T05:18:50.834Z,7.55
2022-08-09T05:21:24.263Z,8.25
2022-08-09T05:23:59.890Z,6.60
2022-08-09T05:26:36.629Z,6.72
2022-08-09T05:29:17.440Z,9.23
2022-08-09T05:31:56.392Z,9.20
2022-08-09T05:34:30.971Z,7.03
2022-08-09T05:37:01.737Z,8.32
2022-08-09T05:39:36.199Z,7.07
2022-08-09T05:42:17.495Z,6.28
2022-08-09T05:44:53.511Z,7.13
2022-08-09T05:47:22.809Z,5.93
2022-08-09T05:50:25.156Z,5.45
2022-08-09T05:52:38.875Z,6.97
2022-08-09T05:55:08.545Z,5.90
2022-08-09T05:57:51.280Z,4.90
2022-08-09T06:00:32.838Z,5.88
2022-08-09T06:03:02.582Z,4.85
2022-08-09T06:05:58.043Z,6.03
2022-08-09T06:08:24.447Z,4.82
2022-08-09T06:10:54.007Z,4.22
2022-08-09T06:13:21.373Z,3.78
2022-08-09T06:15:51.065Z,4.78
2022-08-09T06:18:25.347Z,4.38
2022-08-09T06:20:57.793Z,3.47
2022-08-09T06:23:58.111Z,3.20
2022-08-09T06:26:22.702Z,3.38
2022-08-09T06:28:59.450Z,3.92
2022-08-09T06:31:39.842Z,4.15
2022-08-09T06:34:17.741Z,4.07
2022-08-09T06:36:45.916Z,4.72
2022-08-09T06:39:13.601Z,3.72
2022-08-09T06:42:08.988Z,3.25
2022-08-09T06:44:29.652Z,2.88
2022-08-09T06:47:02.466Z,4.13
2022-08-09T06:50:11.935Z,3.05
2022-08-09T06:52:17.652Z,4.45
2022-08-09T06:54:45.167Z,2.70
2022-08-09T06:57:14.196Z,4.47
2022-08-09T07:00:56.545Z,3.78
2022-08-09T07:02:30.765Z,3.10
2022-08-09T07:04:58.635Z,1.98
2022-08-09T07:07:58.646Z,4.28
2022-08-09T07:10:29.332Z,2.33
2022-08-09T07:12:58.266Z,2.75
2022-08-09T07:16:38.680Z,1.83
2022-08-09T07:18:14.341Z,2.28
2022-08-09T07:20:43.632Z,2.55
2022-08-09T07:23:18.104Z,2.33
2022-08-09T07:25:46.261Z,2.70
2022-08-09T07:28:18.989Z,1.95
2022-08-09T07:30:46.341Z,1.55
2022-08-09T07:33:16.693Z,2.10
2022-08-09T07:35:53.437Z,1.70
2022-08-09T07:38:21.732Z,2.28
2022-08-09T07:41:10.102Z,1.10
2022-08-09T07:43:41.340Z,4.25
2022-08-09T07:46:19.048Z,1.63
2022-08-09T07:48:46.852Z,1.63
2022-08-09T07:52:05.012Z,2.10
2022-08-09T07:54:12.814Z,1.00
2022-08-09T07:56:48.698Z,1.40
2022-08-09T07:59:25.393Z,0.93
2022-08-09T08:02:02.390Z,1.10
2022-08-09T08:04:31.610Z,1.20
2022-08-09T08:07:00.149Z,2.13
2022-08-09T08:09:39.750Z,1.67
2022-08-09T08:12:27.790Z,2.15
2022-08-09T08:14:59.903Z,1.13
2022-08-09T08:17:52.023Z,2.13
2022-08-09T08:20:13.875Z,1.10
2022-08-09T08:22:41.353Z,1.15
2022-08-09T08:25:09.346Z,1.27
2022-08-09T08:27:41.129Z,1.25
2022-08-09T08:30:11.261Z,2.60
2022-08-09T08:32:51.265Z,0.95
2022-08-09T08:35:22.191Z,0.70
2022-08-09T08:37:59.402Z,1.40
2022-08-09T08:40:29.532Z,0.85
2022-08-09T08:42:58.334Z,0.80
2022-08-09T08:45:37.395Z,1.05
2022-08-09T08:48:05.806Z,1.33
2022-08-09T08:50:32.963Z,1.85
2022-08-09T08:53:02.370Z,2.58
2022-08-09T08:55:32.244Z,1.25
2022-08-09T08:57:59.074Z,0.95
2022-08-09T09:00:30.562Z,1.02
2022-08-09T09:03:11.385Z,1.15
2022-08-09T09:06:00.874Z,1.70
2022-08-09T09:08:41.041Z,0.90
2022-08-09T09:11:13.765Z,2.15
2022-08-09T09:13:56.181Z,0.95
2022-08-09T09:16:30.557Z,0.60
2022-08-09T09:22:07.605Z,0.77
2022-08-09T09:24:43.403Z,1.10
2022-08-09T09:28:03.237Z,1.17
2022-08-09T09:30:14.556Z,1.73
2022-08-09T09:33:16.439Z,1.10
2022-08-09T09:36:03.669Z,1.02
2022-08-09T09:38:50.065Z,1.15
2022-08-09T09:41:33.324Z,1.27
2022-08-09T09:44:12.706Z,0.88
2022-08-09T09:46:52.184Z,0.55
2022-08-09T09:49:49.810Z,1.38
2022-08-09T09:52:16.396Z,1.48
2022-08-09T09:55:16.028Z,0.63
2022-08-09T09:58:18.221Z,0.98
2022-08-09T10:00:54.977Z,0.82
2022-08-09T10:04:00.230Z,0.88
2022-08-09T10:06:32.526Z,0.65
2022-08-09T10:09:22.844Z,0.85
2022-08-09T10:12:14.774Z,0.75
2022-08-09T10:14:48.778Z,0.60
2022-08-09T10:17:51.194Z,0.68
2022-08-09T10:20:27.053Z,0.60
2022-08-09T10:23:13.476Z,2.50
2022-08-09T10:26:06.922Z,1.13
2022-08-09T10:28:33.650Z,0.60
2022-08-09T10:34:10.545Z,0.50
2022-08-09T10:36:34.024Z,0.85
2022-08-09T10:39:02.368Z,1.08
2022-08-09T10:41:29.097Z,0.50
2022-08-09T10:43:59.929Z,0.80
2022-08-09T10:48:12.802Z,0.98
2022-08-09T10:50:03.835Z,0.73
2022-08-09T10:52:58.390Z,0.70
2022-08-09T10:55:29.176Z,0.65
2022-08-09T10:58:37.132Z,1.35
2022-08-09T11:03:13.710Z,0.40
2022-08-09T11:04:27.864Z,1.15
2022-08-09T11:06:59.975Z,0.50
2022-08-09T11:09:38.893Z,1.23
2022-08-09T11:12:12.201Z,0.57
2022-08-09T11:14:51.350Z,0.93
2022-08-09T11:17:19.374Z,0.88
2022-08-09T11:20:10.994Z,2.53
2022-08-09T11:22:40.914Z,0.73
2022-08-09T11:25:12.263Z,0.82
2022-08-09T11:28:05.324Z,1.83
2022-08-09T11:30:36.710Z,0.65
2022-08-09T11:33:24.442Z,0.70
2022-08-09T11:36:00.315Z,0.52
2022-08-09T11:38:34.000Z,0.60
2022-08-09T11:41:12.841Z,0.85
2022-08-09T11:43:47.181Z,0.55
2022-08-09T11:46:26.770Z,0.75
2022-08-09T11:49:00.951Z,1.17
2022-08-09T11:53:15.377Z,0.80
2022-08-09T11:55:52.686Z,0.65
2022-08-09T11:58:14.423Z,0.60
2022-08-09T12:01:08.682Z,1.77
2022-08-09T12:03:55.792Z,0.60
2022-08-09T12:06:32.104Z,0.60
2022-08-09T12:09:01.410Z,0.90
2022-08-09T12:11:28.877Z,1.38
2022-08-09T12:14:28.675Z,0.82
2022-08-09T12:17:01.025Z,1.15
2022-08-09T12:19:48.217Z,1.05
2022-08-09T12:22:20.155Z,0.90
2022-08-09T12:24:46.813Z,1.02
2022-08-09T12:29:11.582Z,0.77
2022-08-09T12:30:38.192Z,0.60
2022-08-09T12:33:02.208Z,1.00
2022-08-09T12:35:28.815Z,2.75
2022-08-09T12:37:56.457Z,0.63
2022-08-09T12:40:28.440Z,0.65
2022-08-09T12:42:57.071Z,0.85
2022-08-09T12:45:33.925Z,1.00
2022-08-09T12:48:20.082Z,1.17
2022-08-09T12:50:57.695Z,0.82
2022-08-09T12:53:35.196Z,0.60
2022-08-09T12:56:39.220Z,0.55
2022-08-09T12:59:14.339Z,1.45
2022-08-09T13:01:49.160Z,1.25
2022-08-09T13:04:36.319Z,0.93
2022-08-09T13:07:19.844Z,1.20
2022-08-09T13:10:02.556Z,0.60
2022-08-09T13:12:29.476Z,0.95
2022-08-09T13:15:09.620Z,0.70
2022-08-09T13:18:03.568Z,0.68
2022-08-09T13:20:37.384Z,0.77
2022-08-09T13:24:15.904Z,0.73
2022-08-09T13:26:05.599Z,1.67
2022-08-09T13:28:39.810Z,1.95
2022-08-09T13:32:14.907Z,2.53
2022-08-09T13:33:56.796Z,0.75
2022-08-09T13:36:42.404Z,1.02
2022-08-09T13:41:46.556Z,2.15
2022-08-09T13:42:05.722Z,1.42
2022-08-09T13:44:42.130Z,2.10
2022-08-09T13:47:33.178Z,2.25
2022-08-09T13:50:30.040Z,0.90
2022-08-09T13:52:57.429Z,1.48
2022-08-09T13:55:24.375Z,0.60
2022-08-09T13:57:58.053Z,1.00
2022-08-09T14:00:28.308Z,0.70
2022-08-09T14:03:02.857Z,1.15
2022-08-09T14:05:59.082Z,1.95
2022-08-09T14:08:32.279Z,1.63
2022-08-09T14:11:00.339Z,1.92
2022-08-09T14:14:25.021Z,2.17
2022-08-09T14:16:18.550Z,0.82
2022-08-09T14:18:50.218Z,1.65
2022-08-09T14:21:20.388Z,2.88
2022-08-09T14:23:54.576Z,2.45
2022-08-09T14:26:25.404Z,1.23
2022-08-09T14:28:57.136Z,1.02
2022-08-09T14:31:36.199Z,1.20
2022-08-09T14:34:11.349Z,2.58
2022-08-09T14:36:42.880Z,1.60
2022-08-09T14:39:10.363Z,0.98
2022-08-09T14:41:41.601Z,1.45
2022-08-09T14:44:09.454Z,1.58
2022-08-09T14:46:57.564Z,0.75
2022-08-09T14:49:25.493Z,1.02
2022-08-09T14:51:58.245Z,1.02
2022-08-09T14:54:27.838Z,0.93
2022-08-09T14:56:59.027Z,1.33
2022-08-09T14:59:27.179Z,1.25
2022-08-09T15:01:54.137Z,2.70
2022-08-09T15:04:20.709Z,3.58
2022-08-09T15:06:51.330Z,1.85
2022-08-09T15:10:03.215Z,4.05
2022-08-09T15:12:07.847Z,0.75
2022-08-09T15:14:34.700Z,3.33
2022-08-09T15:17:07.640Z,0.80
2022-08-09T15:19:36.471Z,1.38
2022-08-09T15:22:03.824Z,0.90
2022-08-09T15:24:32.648Z,1.48
2022-08-09T15:26:59.365Z,1.55
2022-08-09T15:30:50.724Z,1.27
2022-08-09T15:32:29.933Z,0.50
2022-08-09T15:35:01.063Z,1.70
2022-08-09T15:37:37.693Z,1.08
2022-08-09T15:40:05.467Z,1.52
2022-08-09T15:42:40.000Z,0.88
2022-08-09T15:45:10.904Z,1.60
2022-08-09T15:47:47.196Z,1.08
2022-08-09T15:50:19.629Z,2.05
2022-08-09T15:52:55.051Z,0.60
2022-08-09T15:56:04.273Z,1.27
2022-08-09T15:58:26.956Z,0.80
2022-08-09T16:00:54.013Z,1.33
2022-08-09T16:03:26.739Z,1.83
2022-08-09T16:06:06.035Z,2.65
2022-08-09T16:08:33.503Z,0.80
2022-08-09T16:11:02.305Z,3.45
2022-08-09T16:14:03.349Z,0.80
2022-08-09T16:16:20.161Z,1.58
2022-08-09T16:18:53.267Z,1.00
2022-08-09T16:21:25.654Z,0.95
2022-08-09T16:23:58.252Z,1.10
2022-08-09T16:26:35.464Z,1.13
2022-08-09T16:29:14.836Z,1.00
2022-08-09T16:32:19.835Z,1.83
2022-08-09T16:34:57.068Z,1.50
2022-08-09T16:37:53.193Z,2.60
2022-08-09T16:40:09.665Z,0.93
2022-08-09T16:42:37.081Z,0.80
2022-08-09T16:45:05.528Z,3.33
2022-08-09T16:48:40.998Z,1.00
2022-08-09T16:50:31.899Z,0.93
2022-08-09T16:53:01.038Z,1.10
2022-08-09T16:55:44.308Z,0.80
2022-08-09T16:58:16.608Z,0.65
2022-08-09T17:00:43.597Z,0.70
2022-08-09T17:03:21.855Z,2.65
2022-08-09T17:06:07.643Z,1.05
2022-08-09T17:08:43.337Z,1.73
2022-08-09T17:11:24.431Z,1.88
2022-08-09T17:14:01.583Z,0.93
2022-08-09T17:16:29.033Z,1.45
2022-08-09T17:18:55.887Z,0.60
2022-08-09T17:21:24.928Z,1.60
2022-08-09T17:24:20.590Z,0.90
2022-08-09T17:26:42.291Z,0.73
2022-08-09T17:29:20.248Z,2.15
2022-08-09T17:31:49.302Z,2.30
2022-08-09T17:34:59.684Z,1.55
2022-08-09T17:37:04.123Z,0.70
2022-08-09T17:39:53.153Z,2.38
2022-08-09T17:42:41.396Z,0.75
2022-08-09T17:45:06.542Z,0.60
2022-08-09T17:47:49.095Z,1.48
2022-08-09T17:50:24.922Z,2.50
2022-08-09T17:53:04.667Z,2.28
2022-08-09T17:55:49.550Z,0.75
2022-08-09T17:58:18.866Z,0.70
2022-08-09T18:00:48.015Z,1.95
2022-08-09T18:03:17.698Z,1.48
2022-08-09T18:05:45.148Z,1.25
2022-08-09T18:08:22.061Z,0.80
2022-08-09T18:11:00.912Z,1.38
2022-08-09T18:13:54.436Z,0.70
2022-08-09T18:16:28.899Z,1.00
2022-08-09T18:18:59.503Z,0.85
2022-08-09T18:21:41.422Z,1.95
2022-08-09T18:24:14.526Z,0.70
2022-08-09T18:26:46.623Z,1.92
2022-08-09T18:30:37.646Z,1.63
2022-08-09T18:32:04.004Z,2.10
2022-08-09T18:34:35.583Z,1.17
2022-08-09T18:37:10.582Z,1.23
2022-08-09T18:39:54.049Z,1.02
2022-08-09T18:42:21.591Z,3.80
2022-08-09T18:44:56.048Z,1.23
2022-08-09T18:47:27.506Z,0.88
2022-08-09T18:49:54.399Z,2.28
2022-08-09T18:52:24.916Z,1.25
2022-08-09T18:55:02.738Z,0.98
2022-08-09T18:57:38.408Z,1.42
2022-08-09T19:00:11.013Z,1.23
2022-08-09T19:02:38.273Z,1.33
2022-08-09T19:05:14.429Z,1.98
2022-08-09T19:08:04.786Z,1.42
2022-08-09T19:10:37.394Z,1.55
2022-08-09T19:13:22.192Z,1.35
2022-08-09T19:15:55.845Z,1.40
2022-08-09T19:18:34.262Z,1.10
2022-08-09T19:21:09.498Z,1.25
2022-08-09T19:24:35.417Z,1.73
2022-08-09T19:26:29.476Z,2.83
2022-08-09T19:29:01.952Z,1.67
2022-08-09T19:31:44.863Z,1.10
2022-08-09T19:34:21.165Z,2.65
2022-08-09T19:36:50.077Z,1.83
2022-08-09T19:39:17.019Z,1.75
2022-08-09T19:41:47.448Z,2.35
2022-08-09T19:44:15.303Z,1.33
2022-08-09T19:46:50.343Z,1.85
2022-08-09T19:50:09.646Z,1.40
2022-08-09T19:52:08.286Z,3.88
2022-08-09T19:54:35.219Z,1.80
2022-08-09T19:57:02.119Z,2.25
2022-08-09T19:59:57.677Z,1.20
2022-08-09T20:04:18.361Z,3.45
2022-08-09T20:05:10.368Z,1.88
2022-08-09T20:07:58.983Z,1.45
2022-08-09T20:10:36.588Z,2.20
2022-08-09T20:13:05.526Z,2.13
2022-08-09T20:16:35.458Z,1.58
2022-08-09T20:18:20.069Z,2.92
2022-08-09T20:20:51.086Z,1.55
2022-08-09T20:23:21.080Z,2.00
2022-08-09T20:25:51.946Z,1.58
2022-08-09T20:28:27.765Z,2.97
2022-08-09T20:30:58.763Z,2.03
2022-08-09T20:33:25.960Z,1.73
2022-08-09T20:35:53.024Z,2.03
2022-08-09T20:38:33.162Z,1.73
2022-08-09T20:41:08.926Z,2.15
2022-08-09T20:43:35.631Z,1.90
2022-08-09T20:46:33.221Z,2.85
2022-08-09T20:48:49.633Z,2.33
2022-08-09T20:51:22.959Z,4.20
2022-08-09T20:53:50.748Z,3.80
2022-08-09T20:56:21.804Z,2.42
2022-08-09T20:58:50.101Z,2.30
2022-08-09T21:01:34.887Z,3.40
2022-08-09T21:05:48.805Z,2.40
2022-08-09T21:06:51.535Z,3.55
2022-08-09T21:09:24.964Z,3.83
2022-08-09T21:14:34.708Z,3.53
2022-08-09T21:17:02.559Z,2.88
2022-08-09T21:20:17.550Z,3.20
2022-08-09T21:22:41.357Z,3.42
2022-08-09T21:25:27.976Z,3.58
2022-08-09T21:28:05.385Z,3.10
2022-08-09T21:30:37.053Z,5.63
2022-08-09T21:33:07.955Z,4.85
2022-08-09T21:35:40.541Z,5.18
2022-08-09T21:38:10.291Z,4.25
2022-08-09T21:40:38.095Z,2.85
2022-08-09T21:43:06.106Z,4.38
2022-08-09T21:45:33.456Z,2.88
2022-08-09T21:48:07.258Z,3.00
2022-08-09T21:50:38.417Z,3.17
2022-08-09T21:53:06.997Z,3.13
2022-08-09T21:55:46.845Z,5.00
2022-08-09T21:58:14.154Z,4.07
2022-08-09T22:00:40.959Z,2.88
2022-08-09T22:03:19.102Z,4.82
2022-08-09T22:05:46.146Z,3.25
2022-08-09T22:08:17.964Z,4.18
2022-08-09T22:11:00.992Z,3.35
2022-08-09T22:13:34.401Z,7.45
2022-08-09T22:16:03.964Z,3.85
2022-08-09T22:18:32.705Z,3.22
2022-08-09T22:21:00.543Z,3.17
2022-08-09T22:23:27.207Z,3.00
2022-08-09T22:26:07.871Z,3.17
2022-08-09T22:28:36.348Z,3.83
2022-08-09T22:31:13.960Z,4.13
2022-08-09T22:33:49.139Z,3.28
2022-08-09T22:36:22.119Z,3.97
2022-08-09T22:38:48.965Z,5.15
2022-08-09T22:41:16.103Z,3.38
2022-08-09T22:44:03.552Z,3.10
2022-08-09T22:48:16.723Z,3.45
2022-08-09T22:49:16.860Z,3.83
2022-08-09T22:51:56.688Z,3.85
2022-08-09T22:54:26.922Z,3.28
2022-08-09T22:56:56.779Z,3.70
2022-08-09T22:59:58.288Z,3.92
2022-08-09T23:02:11.315Z,3.63
2022-08-09T23:04:45.101Z,3.55
2022-08-09T23:08:27.684Z,3.78
2022-08-09T23:10:26.838Z,3.33
2022-08-09T23:12:53.445Z,3.10
2022-08-09T23:15:20.136Z,3.40
2022-08-09T23:17:46.853Z,4.47
2022-08-09T23:20:14.591Z,4.10
2022-08-09T23:22:41.197Z,4.90
2022-08-09T23:25:08.130Z,4.00
2022-08-09T23:27:36.042Z,4.47
2022-08-09T23:30:22.565Z,3.70
2022-08-09T23:32:49.407Z,5.07
2022-08-09T23:35:16.025Z,5.25
2022-08-09T23:37:42.623Z,4.38
2022-08-09T23:40:09.849Z,3.75
2022-08-09T23:42:36.456Z,3.70
2022-08-09T23:45:04.310Z,3.53
2022-08-09T23:47:33.839Z,4.05
2022-08-09T23:50:00.434Z,5.15
2022-08-09T23:52:27.019Z,4.03
2022-08-09T23:54:53.759Z,4.25
2022-08-09T23:57:20.366Z,4.50
